createdAt,value
2022-11-25T00:03:57.874Z,445.00
2022-11-25T00:09:29.627Z,451.00
2022-11-25T00:15:01.330Z,447.00
2022-11-25T00:20:32.949Z,441.00
2022-11-25T00:26:04.442Z,441.00
2022-11-25T00:31:36.341Z,434.00
2022-11-25T00:37:08.074Z,435.00
2022-11-25T00:42:45.974Z,441.00
2022-11-25T00:48:17.585Z,445.00
2022-11-25T00:53:50.282Z,447.00
2022-11-25T00:59:21.215Z,445.00
2022-11-25T01:10:24.859Z,443.00
2022-11-25T01:15:56.827Z,445.00
2022-11-25T01:21:28.546Z,448.00
2022-11-25T01:27:06.242Z,451.00
2022-11-25T01:32:37.999Z,453.00
2022-11-25T01:38:09.839Z,453.00
2022-11-25T01:43:47.724Z,450.00
2022-11-25T01:49:19.407Z,455.00
2022-11-25T01:54:50.745Z,457.00
2022-11-25T02:00:22.026Z,455.00
2022-11-25T02:05:53.483Z,459.00
2022-11-25T02:11:25.247Z,461.00
2022-11-25T02:16:56.684Z,462.00
2022-11-25T02:22:28.520Z,463.00
2022-11-25T02:28:00.195Z,464.00
2022-11-25T02:33:32.335Z,464.00
2022-11-25T02:39:03.878Z,470.00
2022-11-25T02:44:36.108Z,475.00
2022-11-25T02:50:07.636Z,478.00
2022-11-25T02:55:39.483Z,477.00
2022-11-25T03:01:11.268Z,479.00
2022-11-25T03:06:42.782Z,479.00
2022-11-25T03:12:14.623Z,480.00
2022-11-25T03:17:46.672Z,482.00
2022-11-25T03:23:18.515Z,483.00
2022-11-25T03:28:50.262Z,481.00
2022-11-25T03:34:22.037Z,477.00
2022-11-25T03:39:53.589Z,478.00
2022-11-25T03:45:25.659Z,471.00
2022-11-25T03:50:57.465Z,473.00
2022-11-25T03:56:35.301Z,475.00
2022-11-25T04:02:06.829Z,481.00
2022-11-25T04:07:38.969Z,481.00
2022-11-25T04:13:17.028Z,481.00
2022-11-25T04:18:49.069Z,483.00
2022-11-25T04:24:20.659Z,482.00
2022-11-25T04:29:58.740Z,482.00
2022-11-25T04:35:30.389Z,484.00
2022-11-25T04:41:02.333Z,487.00
2022-11-25T04:46:34.078Z,487.00
2022-11-25T04:52:05.800Z,487.00
2022-11-25T04:57:37.523Z,490.00
2022-11-25T05:08:41.208Z,495.00
2022-11-25T05:14:13.115Z,492.00
2022-11-25T05:19:44.999Z,493.00
2022-11-25T05:25:22.504Z,490.00
2022-11-25T05:30:54.645Z,486.00
2022-11-25T05:36:26.221Z,484.00
2022-11-25T05:41:58.064Z,483.00
2022-11-25T05:47:29.895Z,481.00
2022-11-25T05:53:01.808Z,476.00
2022-11-25T05:58:33.927Z,467.00
2022-11-25T06:04:05.661Z,467.00
2022-11-25T06:09:37.689Z,468.00
2022-11-25T06:15:09.596Z,473.00
2022-11-25T06:20:41.486Z,471.00
2022-11-25T06:26:13.377Z,473.00
2022-11-25T06:31:45.417Z,476.00
2022-11-25T06:37:17.283Z,483.00
2022-11-25T06:42:49.185Z,486.00
2022-11-25T06:48:20.596Z,487.00
2022-11-25T06:53:52.337Z,491.00
2022-11-25T06:59:24.429Z,493.00
2022-11-25T07:04:55.895Z,501.00
2022-11-25T07:10:27.694Z,500.00
2022-11-25T07:15:59.514Z,500.00
2022-11-25T07:21:36.924Z,499.00
2022-11-25T07:27:08.465Z,492.00
2022-11-25T07:34:53.742Z,491.00
2022-11-25T07:40:24.612Z,484.00
2022-11-25T07:45:56.174Z,483.00
2022-11-25T07:51:28.056Z,479.00
2022-11-25T07:56:59.743Z,477.00
2022-11-25T08:08:03.208Z,481.00
2022-11-25T08:13:34.856Z,483.00
2022-11-25T08:19:06.935Z,484.00
2022-11-25T08:24:38.621Z,478.00
2022-11-25T08:30:10.320Z,477.00
2022-11-25T08:35:41.885Z,477.00
2022-11-25T08:41:13.573Z,479.00
2022-11-25T08:46:45.656Z,477.00
2022-11-25T08:52:17.239Z,473.00
2022-11-25T08:57:48.794Z,470.00
2022-11-25T09:03:20.750Z,474.00
2022-11-25T09:08:58.224Z,478.00
2022-11-25T09:14:36.109Z,484.00
2022-11-25T09:20:07.746Z,487.00
2022-11-25T09:25:39.678Z,484.00
2022-11-25T09:31:11.433Z,481.00
2022-11-25T09:36:49.036Z,474.00
2022-11-25T09:47:55.724Z,462.00
2022-11-25T09:53:22.098Z,463.00
2022-11-25T09:58:53.843Z,457.00
2022-11-25T10:04:25.733Z,452.00
2022-11-25T10:09:57.379Z,454.00
2022-11-25T10:12:20.856Z,456.00
2022-11-25T10:17:52.457Z,457.00
2022-11-25T10:23:27.992Z,455.00
2022-11-25T10:28:55.993Z,452.00
2022-11-25T10:34:27.741Z,451.00
2022-11-25T10:39:59.733Z,445.00
2022-11-25T10:45:31.326Z,443.00
2022-11-25T10:51:03.429Z,442.00
2022-11-25T10:56:34.996Z,436.00
2022-11-25T11:02:06.933Z,433.00
2022-11-25T11:07:38.679Z,434.00
2022-11-25T11:13:10.327Z,425.00
2022-11-25T11:18:42.194Z,418.00
2022-11-25T11:24:19.764Z,416.00
2022-11-25T11:29:51.620Z,420.00
2022-11-25T11:35:23.494Z,417.00
2022-11-25T11:40:55.074Z,410.00
2022-11-25T11:46:27.027Z,408.00
2022-11-25T11:51:58.713Z,406.00
2022-11-25T11:57:30.522Z,409.00
2022-11-25T12:03:02.411Z,410.00
2022-11-25T12:08:34.149Z,411.00
2022-11-25T12:14:05.871Z,416.00
2022-11-25T12:19:37.640Z,419.00
2022-11-25T12:25:15.483Z,417.00
2022-11-25T12:30:49.016Z,418.00
2022-11-25T12:36:20.480Z,417.00
2022-11-25T12:47:21.891Z,419.00
2022-11-25T12:52:53.525Z,420.00
2022-11-25T12:58:31.336Z,424.00
2022-11-25T13:04:02.458Z,421.00
2022-11-25T13:09:34.047Z,428.00
2022-11-25T13:15:06.172Z,425.00
2022-11-25T13:20:37.729Z,418.00
2022-11-25T13:26:09.226Z,419.00
2022-11-25T13:31:40.756Z,420.00
2022-11-25T13:42:47.805Z,428.00
2022-11-25T13:48:19.618Z,425.00
2022-11-25T13:53:57.546Z,423.00
2022-11-25T13:59:29.125Z,417.00
2022-11-25T14:05:00.951Z,410.00
2022-11-25T14:10:32.721Z,413.00
2022-11-25T14:16:07.125Z,410.00
2022-11-25T14:21:35.579Z,412.00
2022-11-25T14:27:07.055Z,411.00
2022-11-25T14:32:38.207Z,413.00
2022-11-25T14:38:09.801Z,407.00
2022-11-25T14:43:41.394Z,409.00
2022-11-25T14:49:30.575Z,407.00
2022-11-25T14:54:44.318Z,405.00
2022-11-25T15:00:19.160Z,409.00
2022-11-25T15:05:50.970Z,407.00
2022-11-25T15:11:22.727Z,410.00
2022-11-25T15:16:54.259Z,418.00
2022-11-25T15:22:25.764Z,410.00
2022-11-25T15:27:57.602Z,413.00
2022-11-25T15:33:29.482Z,411.00
2022-11-25T15:39:01.352Z,407.00
2022-11-25T15:44:34.339Z,407.00
2022-11-25T15:50:06.410Z,400.00
2022-11-25T15:55:38.211Z,401.00
2022-11-25T16:01:10.197Z,406.00
2022-11-25T16:06:41.657Z,408.00
2022-11-25T16:12:13.484Z,409.00
2022-11-25T16:17:45.352Z,412.00
2022-11-25T16:23:16.922Z,411.00
2022-11-25T16:28:48.891Z,411.00
2022-11-25T16:34:20.754Z,407.00
2022-11-25T16:39:52.533Z,411.00
2022-11-25T16:45:24.631Z,409.00
2022-11-25T16:50:56.081Z,410.00
2022-11-25T16:56:27.956Z,413.00
2022-11-25T17:02:00.504Z,411.00
2022-11-25T17:07:33.682Z,407.00
2022-11-25T17:13:04.359Z,405.00
2022-11-25T17:18:36.032Z,403.00
2022-11-25T17:24:07.886Z,405.00
2022-11-25T17:29:40.383Z,404.00
2022-11-25T17:35:11.859Z,405.00
2022-11-25T17:40:49.759Z,408.00
2022-11-25T17:48:42.565Z,410.00
2022-11-25T18:05:27.867Z,411.00
2022-11-25T18:11:00.186Z,413.00
2022-11-25T18:16:31.972Z,416.00
2022-11-25T18:27:33.391Z,418.00
2022-11-25T18:38:49.252Z,417.00
2022-11-25T18:44:25.681Z,417.00
2022-11-25T18:49:56.204Z,421.00
2022-11-25T18:55:24.120Z,419.00
2022-11-25T19:03:17.260Z,421.00
2022-11-25T19:08:49.159Z,420.00
2022-11-25T19:14:20.852Z,422.00
2022-11-25T19:19:52.518Z,419.00
2022-11-25T19:25:24.469Z,419.00
2022-11-25T19:31:02.304Z,422.00
2022-11-25T19:36:33.927Z,423.00
2022-11-25T19:42:11.789Z,424.00
2022-11-25T19:47:43.429Z,420.00
2022-11-25T19:53:15.391Z,420.00
2022-11-25T19:58:47.247Z,418.00
2022-11-25T20:04:24.662Z,420.00
2022-11-25T20:09:56.766Z,420.00
2022-11-25T20:15:27.990Z,420.00
2022-11-25T20:20:59.477Z,421.00
2022-11-25T20:26:31.549Z,421.00
2022-11-25T20:32:03.253Z,422.00
2022-11-25T20:37:35.091Z,421.00
2022-11-25T20:43:06.646Z,421.00
2022-11-25T20:48:38.461Z,419.00
2022-11-25T20:56:30.386Z,418.00
2022-11-25T21:02:01.729Z,419.00
2022-11-25T21:07:33.265Z,419.00
2022-11-25T21:13:10.701Z,420.00
2022-11-25T21:18:42.602Z,416.00
2022-11-25T21:29:52.054Z,418.00
2022-11-25T21:35:24.029Z,417.00
2022-11-25T21:40:55.548Z,423.00
2022-11-25T21:46:27.142Z,421.00
2022-11-25T21:51:58.669Z,414.00
2022-11-25T21:57:30.670Z,417.00
2022-11-25T22:03:02.745Z,419.00
2022-11-25T22:08:34.414Z,419.00
2022-11-25T22:19:38.141Z,423.00
2022-11-25T22:25:10.127Z,419.00
2022-11-25T22:30:42.062Z,416.00
2022-11-25T22:36:13.615Z,414.00
2022-11-25T22:41:45.689Z,414.00
2022-11-25T22:47:17.284Z,418.00
2022-11-25T22:52:49.528Z,421.00
2022-11-25T22:58:21.924Z,422.00
2022-11-25T23:03:54.054Z,423.00
2022-11-25T23:09:28.126Z,422.00
2022-11-25T23:14:59.982Z,422.00
2022-11-25T23:20:31.885Z,418.00
2022-11-25T23:26:03.984Z,419.00
2022-11-25T23:31:36.195Z,418.00
2022-11-25T23:37:08.130Z,414.00
2022-11-25T23:42:39.902Z,415.00
2022-11-25T23:48:11.799Z,411.00
2022-11-25T23:53:43.741Z,410.00
2022-11-25T23:59:16.081Z,404.00
